sensor_id;sensor_type;location;lat;lon;timestamp;pressure;altitude;pressure_sealevel;temperature;humidity
63088;BME280;49173;43.164;27.786;2023-06-26T00:01:14;99945.38;;;22.39;84.62
63088;BME280;49173;43.164;27.786;2023-06-26T00:03:40;99947.28;;;22.30;84.71
63088;BME280;49173;43.164;27.786;2023-06-26T00:06:05;99947.44;;;22.29;84.89
63088;BME280;49173;43.164;27.786;2023-06-26T00:08:31;99940.28;;;22.28;85.00
63088;BME280;49173;43.164;27.786;2023-06-26T00:10:57;99948.81;;;22.25;85.38
63088;BME280;49173;43.164;27.786;2023-06-26T00:13:23;99944.53;;;22.22;85.68
63088;BME280;49173;43.164;27.786;2023-06-26T00:15:49;99956.50;;;22.21;86.19
63088;BME280;49173;43.164;27.786;2023-06-26T00:18:15;99946.75;;;22.18;86.98
63088;BME280;49173;43.164;27.786;2023-06-26T00:20:41;99948.44;;;22.19;87.59
63088;BME280;49173;43.164;27.786;2023-06-26T00:23:06;99952.56;;;22.24;88.10
63088;BME280;49173;43.164;27.786;2023-06-26T00:25:33;99950.38;;;22.27;87.71
63088;BME280;49173;43.164;27.786;2023-06-26T00:27:59;99948.31;;;22.29;87.65
63088;BME280;49173;43.164;27.786;2023-06-26T00:30:24;99946.44;;;22.30;87.65
63088;BME280;49173;43.164;27.786;2023-06-26T00:32:50;99947.44;;;22.29;87.67
63088;BME280;49173;43.164;27.786;2023-06-26T00:35:16;99948.47;;;22.28;87.79
63088;BME280;49173;43.164;27.786;2023-06-26T00:37:42;99935.50;;;22.30;88.03
63088;BME280;49173;43.164;27.786;2023-06-26T00:40:07;99944.00;;;22.27;87.74
63088;BME280;49173;43.164;27.786;2023-06-26T00:42:33;99937.38;;;22.29;87.92
63088;BME280;49173;43.164;27.786;2023-06-26T00:44:59;99929.34;;;22.28;87.79
63088;BME280;49173;43.164;27.786;2023-06-26T00:47:24;99917.56;;;22.27;87.68
63088;BME280;49173;43.164;27.786;2023-06-26T00:49:51;99926.75;;;22.26;87.54
63088;BME280;49173;43.164;27.786;2023-06-26T00:52:17;99936.16;;;22.24;87.65
63088;BME280;49173;43.164;27.786;2023-06-26T00:54:45;99927.09;;;22.23;87.54
63088;BME280;49173;43.164;27.786;2023-06-26T00:57:11;99931.19;;;22.19;87.70
63088;BME280;49173;43.164;27.786;2023-06-26T00:59:37;99921.28;;;22.18;87.75
63088;BME280;49173;43.164;27.786;2023-06-26T01:02:04;99923.84;;;22.19;87.78
63088;BME280;49173;43.164;27.786;2023-06-26T01:04:29;99926.94;;;22.16;87.58
63088;BME280;49173;43.164;27.786;2023-06-26T01:06:57;99926.94;;;22.16;87.98
63088;BME280;49173;43.164;27.786;2023-06-26T01:09:24;99921.81;;;22.13;87.96
63088;BME280;49173;43.164;27.786;2023-06-26T01:11:51;99919.22;;;22.12;87.70
63088;BME280;49173;43.164;27.786;2023-06-26T01:14:17;99927.59;;;22.10;87.46
63088;BME280;49173;43.164;27.786;2023-06-26T01:16:43;99925.50;;;22.04;87.30
63088;BME280;49173;43.164;27.786;2023-06-26T01:19:19;99933.22;;;22.01;87.61
63088;BME280;49173;43.164;27.786;2023-06-26T01:21:51;99933.38;;;21.99;87.59
63088;BME280;49173;43.164;27.786;2023-06-26T01:24:23;99931.16;;;21.94;88.01
63088;BME280;49173;43.164;27.786;2023-06-26T01:26:52;99931.63;;;21.90;88.11
63088;BME280;49173;43.164;27.786;2023-06-26T01:29:18;99928.72;;;21.91;88.44
63088;BME280;49173;43.164;27.786;2023-06-26T01:31:45;99933.19;;;21.92;88.85
63088;BME280;49173;43.164;27.786;2023-06-26T01:34:17;99923.13;;;21.93;88.78
63088;BME280;49173;43.164;27.786;2023-06-26T01:36:44;99923.81;;;21.95;88.75
63088;BME280;49173;43.164;27.786;2023-06-26T01:39:14;99922.94;;;21.94;88.35
63088;BME280;49173;43.164;27.786;2023-06-26T01:41:40;99927.22;;;21.97;88.56
63088;BME280;49173;43.164;27.786;2023-06-26T01:52:09;99923.81;;;21.95;88.63
63088;BME280;49173;43.164;27.786;2023-06-26T01:54:42;99926.88;;;21.92;88.90
63088;BME280;49173;43.164;27.786;2023-06-26T01:57:09;99924.47;;;21.97;88.83
63088;BME280;49173;43.164;27.786;2023-06-26T01:59:36;99926.72;;;21.93;89.21
63088;BME280;49173;43.164;27.786;2023-06-26T02:02:02;99930.28;;;21.94;89.69
63088;BME280;49173;43.164;27.786;2023-06-26T02:04:32;99927.38;;;21.96;89.59
63088;BME280;49173;43.164;27.786;2023-06-26T02:06:57;99922.09;;;21.94;89.80
63088;BME280;49173;43.164;27.786;2023-06-26T02:09:23;99919.34;;;21.94;90.06
63088;BME280;49173;43.164;27.786;2023-06-26T02:11:48;99914.56;;;21.96;89.87
63088;BME280;49173;43.164;27.786;2023-06-26T02:14:14;99912.38;;;22.00;89.46
63088;BME280;49173;43.164;27.786;2023-06-26T02:16:39;99914.25;;;21.99;88.97
63088;BME280;49173;43.164;27.786;2023-06-26T02:19:05;99922.28;;;22.01;89.30
63088;BME280;49173;43.164;27.786;2023-06-26T02:21:31;99909.28;;;22.03;89.25
63088;BME280;49173;43.164;27.786;2023-06-26T02:23:56;99908.25;;;22.04;89.07
63088;BME280;49173;43.164;27.786;2023-06-26T02:26:22;99909.97;;;22.05;89.45
63088;BME280;49173;43.164;27.786;2023-06-26T02:28:47;99907.78;;;22.08;89.25
63088;BME280;49173;43.164;27.786;2023-06-26T02:31:13;99909.81;;;22.06;89.13
63088;BME280;49173;43.164;27.786;2023-06-26T02:33:38;99906.38;;;22.04;88.95
63088;BME280;49173;43.164;27.786;2023-06-26T02:36:04;99901.25;;;22.01;89.19
63088;BME280;49173;43.164;27.786;2023-06-26T02:38:30;99891.88;;;22.04;89.73
63088;BME280;49173;43.164;27.786;2023-06-26T02:40:55;99897.00;;;22.07;89.53
63088;BME280;49173;43.164;27.786;2023-06-26T02:43:21;99892.53;;;22.06;89.65
63088;BME280;49173;43.164;27.786;2023-06-26T02:45:47;99909.81;;;22.06;90.19
63088;BME280;49173;43.164;27.786;2023-06-26T02:48:12;99902.63;;;22.05;90.46
63088;BME280;49173;43.164;27.786;2023-06-26T02:50:38;99908.09;;;22.05;90.51
63088;BME280;49173;43.164;27.786;2023-06-26T02:53:04;99906.38;;;22.04;90.96
63088;BME280;49173;43.164;27.786;2023-06-26T02:55:29;99910.66;;;22.07;90.78
63088;BME280;49173;43.164;27.786;2023-06-26T02:57:58;99910.34;;;22.10;90.63
63088;BME280;49173;43.164;27.786;2023-06-26T03:00:23;99915.31;;;22.14;90.83
63088;BME280;49173;43.164;27.786;2023-06-26T03:02:49;99905.06;;;22.16;90.79
63088;BME280;49173;43.164;27.786;2023-06-26T03:05:15;99910.88;;;22.13;90.86
63088;BME280;49173;43.164;27.786;2023-06-26T03:07:40;99906.59;;;22.11;91.34
63088;BME280;49173;43.164;27.786;2023-06-26T03:10:06;99912.59;;;22.14;91.04
63088;BME280;49173;43.164;27.786;2023-06-26T03:12:34;99911.03;;;22.12;91.37
63088;BME280;49173;43.164;27.786;2023-06-26T03:14:59;99920.09;;;22.12;91.40
63088;BME280;49173;43.164;27.786;2023-06-26T03:17:25;99913.75;;;22.12;91.90
63088;BME280;49173;43.164;27.786;2023-06-26T03:19:51;99916.50;;;22.12;92.18
63088;BME280;49173;43.164;27.786;2023-06-26T03:22:16;99916.66;;;22.10;92.43
63088;BME280;49173;43.164;27.786;2023-06-26T03:24:43;99922.13;;;22.10;92.77
63088;BME280;49173;43.164;27.786;2023-06-26T03:27:09;99920.25;;;22.11;92.82
63088;BME280;49173;43.164;27.786;2023-06-26T03:29:35;99920.25;;;22.11;92.74
63088;BME280;49173;43.164;27.786;2023-06-26T03:32:01;99916.66;;;22.10;93.24
63088;BME280;49173;43.164;27.786;2023-06-26T03:34:26;99922.13;;;22.10;93.61
63088;BME280;49173;43.164;27.786;2023-06-26T03:36:52;99915.81;;;22.10;93.95
63088;BME280;49173;43.164;27.786;2023-06-26T03:39:17;99906.91;;;22.08;93.91
63088;BME280;49173;43.164;27.786;2023-06-26T03:41:43;99912.38;;;22.08;94.04
63088;BME280;49173;43.164;27.786;2023-06-26T03:44:09;99913.94;;;22.10;94.38
63088;BME280;49173;43.164;27.786;2023-06-26T03:46:34;99906.59;;;22.11;94.45
63088;BME280;49173;43.164;27.786;2023-06-26T03:49:00;99916.66;;;22.10;94.55
63088;BME280;49173;43.164;27.786;2023-06-26T03:51:25;99905.41;;;22.13;94.84
63088;BME280;49173;43.164;27.786;2023-06-26T03:53:51;99905.91;;;22.17;94.50
63088;BME280;49173;43.164;27.786;2023-06-26T03:56:16;99901.97;;;22.19;94.75
63088;BME280;49173;43.164;27.786;2023-06-26T03:58:42;99900.28;;;22.18;94.35
63088;BME280;49173;43.164;27.786;2023-06-26T04:01:08;99904.72;;;22.19;94.63
63088;BME280;49173;43.164;27.786;2023-06-26T04:03:33;99901.13;;;22.19;95.06
63088;BME280;49173;43.164;27.786;2023-06-26T04:05:59;99898.38;;;22.19;95.24
63088;BME280;49173;43.164;27.786;2023-06-26T04:08:25;99906.44;;;22.20;95.64
63088;BME280;49173;43.164;27.786;2023-06-26T04:10:53;99902.69;;;22.22;95.36
63088;BME280;49173;43.164;27.786;2023-06-26T04:13:20;99896.19;;;22.23;95.77
63088;BME280;49173;43.164;27.786;2023-06-26T04:15:46;99903.72;;;22.29;96.52
63088;BME280;49173;43.164;27.786;2023-06-26T04:18:11;99901.66;;;22.31;96.72
63088;BME280;49173;43.164;27.786;2023-06-26T04:20:38;99899.59;;;22.33;96.72
63088;BME280;49173;43.164;27.786;2023-06-26T04:23:04;99908.31;;;22.36;96.80
63088;BME280;49173;43.164;27.786;2023-06-26T04:25:30;99910.69;;;22.39;96.73
63088;BME280;49173;43.164;27.786;2023-06-26T04:27:55;99906.06;;;22.40;96.06
63088;BME280;49173;43.164;27.786;2023-06-26T04:30:21;99905.03;;;22.41;96.36
63088;BME280;49173;43.164;27.786;2023-06-26T04:32:46;99905.75;;;22.43;96.05
63088;BME280;49173;43.164;27.786;2023-06-26T04:35:12;99906.94;;;22.40;96.35
63088;BME280;49173;43.164;27.786;2023-06-26T04:37:38;99906.78;;;22.42;96.31
63088;BME280;49173;43.164;27.786;2023-06-26T04:40:05;99910.19;;;22.44;96.07
63088;BME280;49173;43.164;27.786;2023-06-26T04:42:30;99913.28;;;22.49;96.11
63088;BME280;49173;43.164;27.786;2023-06-26T04:44:56;99911.22;;;22.51;95.68
63088;BME280;49173;43.164;27.786;2023-06-26T04:47:22;99915.81;;;22.51;95.51
63088;BME280;49173;43.164;27.786;2023-06-26T04:49:48;99913.78;;;22.44;92.94
63088;BME280;49173;43.164;27.786;2023-06-26T04:52:14;99915.84;;;22.42;92.32
63088;BME280;49173;43.164;27.786;2023-06-26T04:54:39;99916.50;;;22.44;92.86
63088;BME280;49173;43.164;27.786;2023-06-26T04:57:05;99903.69;;;22.45;92.42
63088;BME280;49173;43.164;27.786;2023-06-26T04:59:31;99901.81;;;22.45;91.61
63088;BME280;49173;43.164;27.786;2023-06-26T05:01:57;99915.66;;;22.52;91.88
63088;BME280;49173;43.164;27.786;2023-06-26T05:04:22;99914.59;;;22.61;92.58
63088;BME280;49173;43.164;27.786;2023-06-26T05:06:48;99912.00;;;22.76;93.08
63088;BME280;49173;43.164;27.786;2023-06-26T05:09:13;99902.41;;;22.96;92.66
63088;BME280;49173;43.164;27.786;2023-06-26T05:11:39;99912.34;;;23.06;90.40
63088;BME280;49173;43.164;27.786;2023-06-26T05:14:05;99912.66;;;23.11;89.42
63088;BME280;49173;43.164;27.786;2023-06-26T05:16:33;99919.50;;;23.15;88.94
63088;BME280;49173;43.164;27.786;2023-06-26T05:18:59;99929.59;;;23.14;87.41
63088;BME280;49173;43.164;27.786;2023-06-26T05:21:25;99926.84;;;23.14;87.22
63088;BME280;49173;43.164;27.786;2023-06-26T05:23:51;99929.78;;;23.13;87.70
63088;BME280;49173;43.164;27.786;2023-06-26T05:26:20;99933.38;;;23.13;88.78
63088;BME280;49173;43.164;27.786;2023-06-26T05:28:46;99928.41;;;23.09;87.96
63088;BME280;49173;43.164;27.786;2023-06-26T05:31:14;99931.13;;;23.09;88.64
63088;BME280;49173;43.164;27.786;2023-06-26T05:33:40;99941.41;;;23.07;88.56
63088;BME280;49173;43.164;27.786;2023-06-26T05:36:08;99943.97;;;23.08;86.47
63088;BME280;49173;43.164;27.786;2023-06-26T05:38:34;99944.34;;;23.05;85.30
63088;BME280;49173;43.164;27.786;2023-06-26T05:41:00;99946.03;;;23.06;86.56
63088;BME280;49173;43.164;27.786;2023-06-26T05:43:26;99948.97;;;23.05;84.88
63088;BME280;49173;43.164;27.786;2023-06-26T05:45:51;99954.44;;;23.05;85.06
63088;BME280;49173;43.164;27.786;2023-06-26T05:48:17;99952.69;;;23.03;84.88
63088;BME280;49173;43.164;27.786;2023-06-26T05:50:43;99952.88;;;23.02;84.93
63088;BME280;49173;43.164;27.786;2023-06-26T05:53:09;99959.91;;;23.05;85.69
63088;BME280;49173;43.164;27.786;2023-06-26T05:55:35;99960.59;;;23.07;85.58
63088;BME280;49173;43.164;27.786;2023-06-26T05:58:02;99962.47;;;23.06;85.88
63088;BME280;49173;43.164;27.786;2023-06-26T06:00:27;99959.91;;;23.05;85.13
63088;BME280;49173;43.164;27.786;2023-06-26T06:02:53;99962.66;;;23.05;84.76
63088;BME280;49173;43.164;27.786;2023-06-26T06:05:22;99962.78;;;23.03;84.29
63088;BME280;49173;43.164;27.786;2023-06-26T06:07:50;99962.78;;;23.03;83.91
63088;BME280;49173;43.164;27.786;2023-06-26T06:10:15;99962.78;;;23.03;84.15
63088;BME280;49173;43.164;27.786;2023-06-26T06:12:41;99971.38;;;23.00;84.59
63088;BME280;49173;43.164;27.786;2023-06-26T06:15:07;99969.50;;;23.00;84.60
63088;BME280;49173;43.164;27.786;2023-06-26T06:17:32;99975.44;;;23.04;83.70
63088;BME280;49173;43.164;27.786;2023-06-26T06:19:58;99971.56;;;22.98;84.03
63088;BME280;49173;43.164;27.786;2023-06-26T06:22:23;99975.47;;;22.96;82.39
63088;BME280;49173;43.164;27.786;2023-06-26T06:24:49;99971.56;;;22.98;82.98
63088;BME280;49173;43.164;27.786;2023-06-26T06:27:16;99974.97;;;23.00;82.76
63088;BME280;49173;43.164;27.786;2023-06-26T06:29:44;99982.13;;;23.01;82.94
63088;BME280;49173;43.164;27.786;2023-06-26T06:32:10;99978.19;;;23.04;83.13
63088;BME280;49173;43.164;27.786;2023-06-26T06:34:36;99978.88;;;23.14;82.51
63088;BME280;49173;43.164;27.786;2023-06-26T06:37:02;99978.00;;;23.14;82.03
63088;BME280;49173;43.164;27.786;2023-06-26T06:39:28;99975.78;;;23.09;82.36
63088;BME280;49173;43.164;27.786;2023-06-26T06:41:53;99984.34;;;23.14;82.80
63088;BME280;49173;43.164;27.786;2023-06-26T06:44:19;99984.84;;;23.18;81.06
63088;BME280;49173;43.164;27.786;2023-06-26T06:46:44;99984.16;;;23.16;80.62
63088;BME280;49173;43.164;27.786;2023-06-26T06:49:10;99980.38;;;23.17;80.91
63088;BME280;49173;43.164;27.786;2023-06-26T06:51:36;99981.25;;;23.17;80.16
63088;BME280;49173;43.164;27.786;2023-06-26T06:54:01;99976.81;;;23.16;79.98
63088;BME280;49173;43.164;27.786;2023-06-26T06:56:27;99980.22;;;23.18;79.16
63088;BME280;49173;43.164;27.786;2023-06-26T06:58:53;99982.63;;;23.21;78.94
63088;BME280;49173;43.164;27.786;2023-06-26T07:01:18;99986.88;;;23.24;79.33
63088;BME280;49173;43.164;27.786;2023-06-26T07:03:44;99982.22;;;23.33;79.18
63088;BME280;49173;43.164;27.786;2023-06-26T07:06:10;99989.22;;;23.43;78.97
63088;BME280;49173;43.164;27.786;2023-06-26T07:08:35;99985.25;;;23.62;79.86
63088;BME280;49173;43.164;27.786;2023-06-26T07:11:01;99989.63;;;23.79;79.03
63088;BME280;49173;43.164;27.786;2023-06-26T07:13:28;99985.78;;;23.97;77.24
63088;BME280;49173;43.164;27.786;2023-06-26T07:15:53;99983.63;;;24.07;75.58
63088;BME280;49173;43.164;27.786;2023-06-26T07:18:19;99981.81;;;24.22;74.45
63088;BME280;49173;43.164;27.786;2023-06-26T07:20:45;99987.09;;;24.32;74.85
63088;BME280;49173;43.164;27.786;2023-06-26T07:23:10;99983.81;;;24.36;74.10
63088;BME280;49173;43.164;27.786;2023-06-26T07:25:36;99986.47;;;24.45;75.30
63088;BME280;49173;43.164;27.786;2023-06-26T07:28:02;99986.78;;;24.50;74.82
63088;BME280;49173;43.164;27.786;2023-06-26T07:30:28;99985.75;;;24.51;74.48
63088;BME280;49173;43.164;27.786;2023-06-26T07:32:54;99992.94;;;24.52;73.46
63088;BME280;49173;43.164;27.786;2023-06-26T07:35:19;99987.84;;;24.49;73.27
63088;BME280;49173;43.164;27.786;2023-06-26T07:37:45;99991.44;;;24.49;73.84
63088;BME280;49173;43.164;27.786;2023-06-26T07:40:11;99999.13;;;24.54;74.79
63088;BME280;49173;43.164;27.786;2023-06-26T07:42:36;99988.63;;;24.57;74.40
63088;BME280;49173;43.164;27.786;2023-06-26T07:45:02;99993.56;;;24.62;74.71
63088;BME280;49173;43.164;27.786;2023-06-26T07:47:35;99992.84;;;24.68;74.05
63088;BME280;49173;43.164;27.786;2023-06-26T07:50:01;99990.31;;;24.81;72.25
63088;BME280;49173;43.164;27.786;2023-06-26T07:52:27;99990.31;;;24.81;73.08
63088;BME280;49173;43.164;27.786;2023-06-26T07:54:52;99996.09;;;24.86;71.74
63088;BME280;49173;43.164;27.786;2023-06-26T07:57:18;99981.88;;;24.83;70.95
63088;BME280;49173;43.164;27.786;2023-06-26T07:59:43;99988.88;;;24.85;71.71
63088;BME280;49173;43.164;27.786;2023-06-26T08:02:09;99988.34;;;24.90;71.51
63088;BME280;49173;43.164;27.786;2023-06-26T08:04:35;99983.50;;;24.92;70.63
63088;BME280;49173;43.164;27.786;2023-06-26T08:07:00;99986.25;;;24.92;71.09
63088;BME280;49173;43.164;27.786;2023-06-26T08:09:27;99989.66;;;24.94;70.91
63088;BME280;49173;43.164;27.786;2023-06-26T08:11:53;99982.97;;;24.97;71.72
63088;BME280;49173;43.164;27.786;2023-06-26T08:14:19;99981.06;;;24.97;71.25
63088;BME280;49173;43.164;27.786;2023-06-26T08:16:45;99985.91;;;24.95;70.42
63088;BME280;49173;43.164;27.786;2023-06-26T08:19:11;99988.16;;;24.91;70.56
63088;BME280;49173;43.164;27.786;2023-06-26T08:21:37;99976.31;;;24.91;70.80
63088;BME280;49173;43.164;27.786;2023-06-26T08:24:03;99984.34;;;24.92;69.57
63088;BME280;49173;43.164;27.786;2023-06-26T08:26:29;99976.78;;;24.94;69.27
63088;BME280;49173;43.164;27.786;2023-06-26T08:28:55;99976.63;;;24.96;67.59
63088;BME280;49173;43.164;27.786;2023-06-26T08:31:20;99982.66;;;24.91;68.75
63088;BME280;49173;43.164;27.786;2023-06-26T08:33:46;99985.78;;;24.88;69.38
63088;BME280;49173;43.164;27.786;2023-06-26T08:36:12;99979.91;;;24.91;70.73
63088;BME280;49173;43.164;27.786;2023-06-26T08:38:38;99994.41;;;25.00;69.18
63088;BME280;49173;43.164;27.786;2023-06-26T08:41:07;99985.94;;;25.10;67.84
63088;BME280;49173;43.164;27.786;2023-06-26T08:43:33;99989.91;;;25.22;67.89
63088;BME280;49173;43.164;27.786;2023-06-26T08:45:59;99990.88;;;25.29;67.95
63088;BME280;49173;43.164;27.786;2023-06-26T08:48:25;99989.47;;;25.33;67.30
63088;BME280;49173;43.164;27.786;2023-06-26T08:50:52;99995.63;;;25.35;67.83
63088;BME280;49173;43.164;27.786;2023-06-26T08:53:23;99995.63;;;25.35;66.78
63088;BME280;49173;43.164;27.786;2023-06-26T08:55:53;99988.06;;;25.37;66.07
63088;BME280;49173;43.164;27.786;2023-06-26T08:58:20;99998.00;;;25.38;67.06
63088;BME280;49173;43.164;27.786;2023-06-26T09:00:48;99996.56;;;25.42;65.67
63088;BME280;49173;43.164;27.786;2023-06-26T09:03:15;99994.97;;;25.48;65.75
63088;BME280;49173;43.164;27.786;2023-06-26T09:05:41;99999.22;;;25.51;64.87
63088;BME280;49173;43.164;27.786;2023-06-26T09:08:06;100003.94;;;25.57;65.79
63088;BME280;49173;43.164;27.786;2023-06-26T09:10:32;99999.59;;;25.62;65.30
63088;BME280;49173;43.164;27.786;2023-06-26T09:12:58;99997.25;;;25.74;66.37
63088;BME280;49173;43.164;27.786;2023-06-26T09:15:24;100002.25;;;25.85;64.64
63088;BME280;49173;43.164;27.786;2023-06-26T09:17:50;100003.28;;;25.84;64.76
63088;BME280;49173;43.164;27.786;2023-06-26T09:20:16;100002.44;;;25.84;63.02
63088;BME280;49173;43.164;27.786;2023-06-26T09:22:42;100007.75;;;25.85;63.57
63088;BME280;49173;43.164;27.786;2023-06-26T09:25:09;100011.84;;;25.89;63.93
63088;BME280;49173;43.164;27.786;2023-06-26T09:27:35;100005.81;;;26.00;63.27
63088;BME280;49173;43.164;27.786;2023-06-26T09:30:04;100007.03;;;26.13;64.23
63088;BME280;49173;43.164;27.786;2023-06-26T09:32:33;100005.75;;;26.30;64.03
63088;BME280;49173;43.164;27.786;2023-06-26T09:34:59;100001.88;;;26.39;63.21
63088;BME280;49173;43.164;27.786;2023-06-26T09:37:29;99998.34;;;26.45;63.27
63088;BME280;49173;43.164;27.786;2023-06-26T09:39:55;99996.09;;;26.55;60.54
63088;BME280;49173;43.164;27.786;2023-06-26T09:42:20;99998.00;;;26.55;60.89
63088;BME280;49173;43.164;27.786;2023-06-26T09:44:47;100001.94;;;26.67;61.03
63088;BME280;49173;43.164;27.786;2023-06-26T09:47:20;99998.66;;;26.78;60.85
63088;BME280;49173;43.164;27.786;2023-06-26T09:49:46;99995.81;;;26.93;61.41
63088;BME280;49173;43.164;27.786;2023-06-26T09:52:15;99991.47;;;27.05;60.08
63088;BME280;49173;43.164;27.786;2023-06-26T09:54:42;99989.44;;;27.14;58.04
63088;BME280;49173;43.164;27.786;2023-06-26T09:57:11;99996.69;;;27.22;57.14
63088;BME280;49173;43.164;27.786;2023-06-26T09:59:37;99996.47;;;27.23;57.81
63088;BME280;49173;43.164;27.786;2023-06-26T10:02:03;100002.03;;;27.30;58.17
63088;BME280;49173;43.164;27.786;2023-06-26T10:04:29;99988.72;;;27.40;57.79
63088;BME280;49173;43.164;27.786;2023-06-26T10:06:55;99998.41;;;27.57;56.73
63088;BME280;49173;43.164;27.786;2023-06-26T10:09:22;99988.03;;;27.66;57.37
63088;BME280;49173;43.164;27.786;2023-06-26T10:12:06;99997.69;;;27.83;56.33
63088;BME280;49173;43.164;27.786;2023-06-26T10:14:39;99982.25;;;27.96;53.68
63088;BME280;49173;43.164;27.786;2023-06-26T10:17:08;99980.81;;;28.06;54.91
63088;BME280;49173;43.164;27.786;2023-06-26T10:19:34;99975.13;;;28.21;54.84
63088;BME280;49173;43.164;27.786;2023-06-26T10:22:05;99975.78;;;28.30;53.36
63088;BME280;49173;43.164;27.786;2023-06-26T10:24:31;99973.72;;;28.45;53.97
63088;BME280;49173;43.164;27.786;2023-06-26T10:27:08;99972.47;;;28.48;51.25
63088;BME280;49173;43.164;27.786;2023-06-26T10:29:37;99975.63;;;28.38;50.45
63088;BME280;49173;43.164;27.786;2023-06-26T10:32:03;99965.19;;;28.27;51.31
63088;BME280;49173;43.164;27.786;2023-06-26T10:34:31;99961.75;;;28.25;51.80
63088;BME280;49173;43.164;27.786;2023-06-26T10:37:00;99964.31;;;28.26;50.52
63088;BME280;49173;43.164;27.786;2023-06-26T10:39:26;99962.88;;;28.30;51.17
63088;BME280;49173;43.164;27.786;2023-06-26T10:41:54;99957.13;;;28.32;50.01
63088;BME280;49173;43.164;27.786;2023-06-26T10:44:20;99955.03;;;28.40;50.55
63088;BME280;49173;43.164;27.786;2023-06-26T10:49:15;99951.41;;;28.53;51.48
63088;BME280;49173;43.164;27.786;2023-06-26T10:51:47;99948.88;;;28.65;49.98
63088;BME280;49173;43.164;27.786;2023-06-26T10:54:17;99936.56;;;28.74;49.48
63088;BME280;49173;43.164;27.786;2023-06-26T10:56:45;99941.44;;;28.85;50.79
63088;BME280;49173;43.164;27.786;2023-06-26T10:59:15;99938.28;;;28.95;51.22
63088;BME280;49173;43.164;27.786;2023-06-26T11:01:42;99946.16;;;29.05;51.56
63088;BME280;49173;43.164;27.786;2023-06-26T11:04:08;99945.25;;;29.11;50.89
63088;BME280;49173;43.164;27.786;2023-06-26T11:06:34;99940.16;;;29.14;48.80
63088;BME280;49173;43.164;27.786;2023-06-26T11:14:34;99933.75;;;29.27;48.23
63088;BME280;49173;43.164;27.786;2023-06-26T11:17:03;99931.22;;;29.25;46.92
63088;BME280;49173;43.164;27.786;2023-06-26T11:19:29;99934.38;;;29.36;49.90
63088;BME280;49173;43.164;27.786;2023-06-26T11:21:58;99929.44;;;29.44;48.67
63088;BME280;49173;43.164;27.786;2023-06-26T11:24:25;99932.66;;;29.54;49.27
63088;BME280;49173;43.164;27.786;2023-06-26T11:26:51;99927.50;;;29.65;46.62
63088;BME280;49173;43.164;27.786;2023-06-26T11:29:17;99927.25;;;29.73;47.64
63088;BME280;49173;43.164;27.786;2023-06-26T11:31:44;99920.84;;;29.79;48.63
63088;BME280;49173;43.164;27.786;2023-06-26T11:34:12;99928.03;;;29.87;47.65
63088;BME280;49173;43.164;27.786;2023-06-26T11:36:39;99918.22;;;29.91;47.55
63088;BME280;49173;43.164;27.786;2023-06-26T11:39:07;99906.56;;;29.82;45.99
63088;BME280;49173;43.164;27.786;2023-06-26T11:41:33;99895.66;;;29.87;46.80
63088;BME280;49173;43.164;27.786;2023-06-26T11:46:28;99913.00;;;30.07;46.86
63088;BME280;49173;43.164;27.786;2023-06-26T11:48:54;99925.38;;;30.12;47.27
63088;BME280;49173;43.164;27.786;2023-06-26T11:51:20;99924.31;;;30.13;45.53
63088;BME280;49173;43.164;27.786;2023-06-26T11:53:47;99933.91;;;30.10;45.40
63088;BME280;49173;43.164;27.786;2023-06-26T11:56:16;99931.19;;;29.97;45.77
63088;BME280;49173;43.164;27.786;2023-06-26T11:58:59;99936.53;;;29.92;45.54
63088;BME280;49173;43.164;27.786;2023-06-26T12:01:39;99932.75;;;29.79;44.62
63088;BME280;49173;43.164;27.786;2023-06-26T12:04:05;99931.47;;;29.82;45.02
63088;BME280;49173;43.164;27.786;2023-06-26T12:06:35;99922.31;;;29.81;42.99
63088;BME280;49173;43.164;27.786;2023-06-26T12:09:02;99924.03;;;29.83;44.18
63088;BME280;49173;43.164;27.786;2023-06-26T12:11:31;99916.34;;;29.85;44.20
63088;BME280;49173;43.164;27.786;2023-06-26T12:13:57;99914.63;;;29.90;45.14
63088;BME280;49173;43.164;27.786;2023-06-26T12:16:23;99907.34;;;29.96;43.94
63088;BME280;49173;43.164;27.786;2023-06-26T12:18:49;99910.31;;;29.94;43.71
63088;BME280;49173;43.164;27.786;2023-06-26T12:24:17;99911.94;;;30.08;46.11
63088;BME280;49173;43.164;27.786;2023-06-26T12:26:50;99922.56;;;30.18;44.68
63088;BME280;49173;43.164;27.786;2023-06-26T12:29:19;99917.41;;;30.22;43.88
63088;BME280;49173;43.164;27.786;2023-06-26T12:31:46;99914.69;;;30.15;43.59
63088;BME280;49173;43.164;27.786;2023-06-26T12:34:14;99922.34;;;30.20;44.28
63088;BME280;49173;43.164;27.786;2023-06-26T12:36:43;99929.53;;;30.27;45.10
63088;BME280;49173;43.164;27.786;2023-06-26T12:39:10;99926.53;;;30.29;43.77
63088;BME280;49173;43.164;27.786;2023-06-26T12:44:29;99941.19;;;29.98;49.84
63088;BME280;49173;43.164;27.786;2023-06-26T12:46:56;99939.53;;;29.84;49.13
63088;BME280;49173;43.164;27.786;2023-06-26T12:49:43;99952.38;;;29.71;49.72
63088;BME280;49173;43.164;27.786;2023-06-26T12:52:09;99944.53;;;29.62;53.09
63088;BME280;49173;43.164;27.786;2023-06-26T12:54:39;99949.63;;;29.58;52.17
63088;BME280;49173;43.164;27.786;2023-06-26T12:57:06;99953.25;;;29.45;54.64
63088;BME280;49173;43.164;27.786;2023-06-26T12:59:33;99966.94;;;29.27;56.17
63088;BME280;49173;43.164;27.786;2023-06-26T13:01:59;99957.19;;;29.11;55.93
63088;BME280;49173;43.164;27.786;2023-06-26T13:04:24;99957.63;;;28.95;56.05
63088;BME280;49173;43.164;27.786;2023-06-26T13:06:51;99965.28;;;28.93;56.81
63088;BME280;49173;43.164;27.786;2023-06-26T13:09:17;99959.53;;;28.94;56.79
63088;BME280;49173;43.164;27.786;2023-06-26T13:11:43;99960.81;;;28.98;57.64